URMO

Details ICAO URMO (OGZ)
Name BESLAN
Region Russia
Timezone Europe/Moscow (UTC+3.0)
Plans Departing 15
Arriving 17
Stats Elevation 1,673 ft / 510 m (AMSL)
Location 43.205114° 44.606640°
Runways 1
Magnetic Variation 7.121° E
Sunrise 2017-12-11 04:24:50 UTC / 2017-12-11 07:24:50 Local
Sunset 2017-12-11 13:27:38 UTC / 2017-12-11 16:27:38 Local
Advertisement - Login to hide

Runways

ID Width Length Bearing (true) Bearing (mag) Surface Threshold Offset Overrun Length
10 148 ft / 45 m 9,806 ft / 2,989 m 101.53° 94.41° Concrete 0 ft / 0 m 0 ft / 0 m
28 148 ft / 45 m 9,806 ft / 2,989 m 281.56° 274.44° Concrete 0 ft / 0 m 0 ft / 0 m

Map

Weather


0- 5 10 15 20 25 30 35+ Temperature / ° C

Clouds and Precipitation
Forecast for 2017-12-11 12:00 UTC. Updated 36 minutes ago

Ground ~20,000 ft ~40,000 ft Winds

METAR

URMO 111130Z 17002MPS 9999 BKN031 04/03 Q1026 R09/190160 NOSIG RMK QFE726/0968

TAF

Not found

Frequencies

Tower 118.10 MHz START
Approach 125.20 MHz KRUG
Warning: Do not use this data for real-world aviation or navigation. No guarantee of current accuracy is given.